Latest Weather Observations for Lake Macquarie - Cooranbong

IDN60801

Issued at 4:04 pm EST Friday 1 July 2016 (issued every 30 minutes, with the page automatically refreshed every 10 minutes)

About weather observations | Map of weather stations | Latest weather observations for NSW | Other Formats
Station Details ID: 061412 Name: LAKE MACQUARIE AWS Lat: -33.09 Lon: 151.46 Height: 6.0 m
Data from the previous 72 hours. | See also: Recent months at Lake Macquarie - Cooranbong
Date/Time
EST
Temp
°C
App
Temp
°C
Dew
Point
°C
Rel
Hum
%
Delta-T
°C
Wind Press
QNH
hPa
Press
MSL
hPa
Rain since
9am
mm
Dir  Spd
km/h
Gust
km/h
Spd
kts
Gust
kts
01/04:00pm 16.0 13.0 1.0 36 6.5 NW 6 7 3 4 1017.3 1017.3 0.0
01/03:30pm 16.4 12.7 0.1 33 7.0 W 9 17 5 9 1017.1 1017.1 0.0
01/03:00pm 16.7 13.7 2.3 38 6.5 WNW 7 13 4 7 1017.0 1017.0 0.0
01/02:30pm 16.2 12.4 1.5 37 6.5 WNW 11 20 6 11 1016.5 1016.5 0.0
01/02:00pm 15.8 11.1 1.2 37 6.4 WNW 15 28 8 15 1016.4 1016.4 0.0
01/01:30pm 16.3 12.4 1.2 36 6.6 WNW 11 24 6 13 1016.4 1016.4 0.0
01/01:00pm 16.0 11.6 0.6 35 6.6 W 13 30 7 16 1016.3 1016.3 0.0
01/12:30pm 14.9 10.5 0.4 37 6.2 W 13 26 7 14 1016.5 1016.5 0.0
01/12:00pm 15.2 10.0 0.2 36 6.4 W 17 32 9 17 1016.7 1016.7 0.0
01/11:30am 14.5 9.7 0.0 37 6.1 WNW 15 24 8 13 1016.5 1016.5 0.0
01/11:00am 14.7 10.3 0.2 37 6.1 NW 13 26 7 14 1016.7 1016.7 0.0
01/10:30am 14.6 10.4 1.5 41 5.7 WNW 13 20 7 11 1017.3 1017.3 0.0
01/10:00am 14.4 11.0 2.0 43 5.4 NW 9 17 5 9 1017.2 1017.2 0.0
01/09:30am 13.6 10.1 1.3 43 5.3 WNW 9 22 5 12 1017.3 1017.3 0.0
01/09:00am 13.4 11.1 2.6 48 4.7 NW 4 7 2 4 1016.8 1016.8 0.0
01/08:30am 11.3 9.3 4.5 63 3.1 NNE 4 9 2 5 1016.9 1016.9 0.0
01/08:00am 10.0 7.9 5.8 75 1.9 N 6 11 3 6 1016.5 1016.5 0.0
01/07:30am 7.3 6.0 3.9 79 1.5 CALM 0 6 0 3 1016.7 1016.7 0.0
01/07:00am 7.2 5.8 3.3 76 1.6 CALM 0 0 0 0 1015.6 1015.6 0.0
01/06:30am 8.7 7.2 2.9 67 2.5 CALM 0 4 0 2 1014.9 1014.9 0.0
01/06:00am 10.2 7.7 3.5 63 2.9 NW 6 7 3 4 1014.8 1014.8 0.0
01/05:30am 11.3 8.7 3.3 58 3.5 NW 6 11 3 6 1015.0 1015.0 0.0
01/05:00am 11.4 8.8 3.2 57 3.6 NW 6 11 3 6 1014.7 1014.7 0.0
01/04:30am 11.7 8.5 3.2 56 3.7 NW 9 17 5 9 1014.4 1014.4 0.0
01/04:00am 11.8 8.6 3.3 56 3.7 NW 9 19 5 10 1014.1 1014.1 0.0
01/03:30am 12.0 8.8 3.3 55 3.8 NW 9 19 5 10 1014.2 1014.2 0.0
01/03:00am 12.0 8.5 3.3 55 3.8 N 11 17 6 9 1014.2 1014.2 0.0
01/02:30am 12.2 9.0 2.9 53 4.1 NNW 9 20 5 11 1014.6 1014.6 0.0
01/02:00am 12.5 8.9 2.9 52 4.2 NNW 11 22 6 12 1014.7 1014.7 0.0
01/01:30am 12.7 9.6 3.4 53 4.1 NNW 9 17 5 9 1015.0 1015.0 0.0
01/01:00am 12.7 8.8 3.4 53 4.1 NW 13 30 7 16 1015.2 1015.2 0.0
01/12:30am 12.6 9.1 3.3 53 4.1 NW 11 24 6 13 1015.2 1015.2 0.0
01/12:00am 12.8 9.2 2.9 51 4.4 NW 11 30 6 16 1015.6 1015.6 0.0
 
Date/Time
EST
Temp
°C
App
Temp
°C
Dew
Point
°C
Rel
Hum
%
Delta-T
°C
Wind Press
QNH
hPa
Press
MSL
hPa
Rain since
9am
mm
Dir  Spd
km/h
Gust
km/h
Spd
kts
Gust
kts
30/11:30pm 12.9 9.6 2.5 49 4.5 NNW 9 24 5 13 1015.6 1015.6 0.0
30/11:00pm 12.9 9.9 2.2 48 4.6 NNW 7 13 4 7 1016.1 1016.1 0.0
30/10:30pm 12.7 9.9 2.0 48 4.6 NNW 6 15 3 8 1016.1 1016.1 0.0
30/10:00pm 12.6 9.8 2.2 49 4.5 NNW 6 9 3 5 1016.3 1016.3 0.0
30/09:30pm 13.3 10.0 2.2 47 4.8 NNW 9 17 5 9 1016.6 1016.6 0.0
30/09:00pm 12.4 9.4 1.7 48 4.6 N 7 13 4 7 1016.7 1016.7 0.0
30/08:30pm 13.1 10.1 1.8 46 4.9 NNW 7 15 4 8 1016.7 1016.7 0.0
30/08:00pm 14.1 10.3 1.7 43 5.4 NNW 11 20 6 11 1016.8 1016.8 0.0
30/07:30pm 14.2 10.8 1.8 43 5.4 N 9 19 5 10 1016.8 1016.8 0.0
30/07:00pm 14.3 11.3 1.9 43 5.4 NNW 7 13 4 7 1017.1 1017.1 0.0
30/06:30pm 14.5 11.4 1.4 41 5.7 NNW 7 15 4 8 1017.0 1017.0 0.0
30/06:00pm 14.7 11.6 1.6 41 5.7 NNW 7 15 4 8 1016.9 1016.9 0.0
30/05:30pm 14.6 11.5 1.5 41 5.7 NNW 7 20 4 11 1016.7 1016.7 0.0
30/05:00pm 14.8 11.8 1.7 41 5.7 NNW 7 11 4 6 1016.3 1016.3 0.0
30/04:30pm 15.0 10.7 1.2 39 6.0 N 13 26 7 14 1016.3 1016.3 0.0
30/04:00pm 15.1 11.5 0.9 38 6.1 N 9 17 5 9 1016.0 1016.0 0.0
30/03:30pm 15.0 11.7 0.1 36 6.3 NNW 7 13 4 7 1016.4 1016.4 0.0
30/03:00pm 15.2 11.2 0.2 36 6.4 NNW 11 22 6 12 1016.4 1016.4 0.0
30/02:30pm 15.7 11.0 0.7 36 6.5 NNW 15 28 8 15 1016.7 1016.7 0.0
30/02:00pm 15.5 11.0 -0.3 34 6.6 NNW 13 22 7 12 1017.0 1017.0 0.0
30/01:30pm 15.4 11.6 -0.4 34 6.6 NNW 9 15 5 8 1017.5 1017.5 0.0
30/01:00pm 15.8 10.9 -0.8 32 6.9 N 15 32 8 17 1018.2 1018.2 0.0
30/12:30pm 16.3 13.0 0.0 33 7.0 NNW 7 15 4 8 1018.8 1018.8 0.0
30/12:00pm 15.8 12.2 0.4 35 6.6 NNW 9 17 5 9 1019.3 1019.3 0.0
30/11:30am 15.5 11.0 -0.3 34 6.7 NNW 13 24 7 13 1020.2 1020.2 0.0
30/11:00am 15.6 11.2 0.6 36 6.4 N 13 22 7 12 1020.7 1020.7 0.0
30/10:30am 15.6 12.8 3.4 44 5.6 N 7 17 4 9 1021.2 1021.2 0.0
30/10:00am 11.4 10.6 6.7 73 2.2 CALM 0 0 0 0 1021.6 1021.6 0.0
30/09:30am 8.5 7.7 6.6 88 0.9 CALM 0 0 0 0 1022.0 1022.0 0.0
30/09:00am 6.6 5.7 6.2 97 0.2 CALM 0 0 0 0 1022.1 1022.1 0.0
30/08:30am 3.6 2.1 3.2 97 0.2 CALM 0 0 0 0 1022.0 1022.0 0.0
30/08:00am 0.8 -1.2 0.2 96 0.2 CALM 0 0 0 0 1021.9 1021.9 0.0
30/07:30am -0.9 -3.1 -1.6 95 0.2 CALM 0 0 0 0 1022.0 1022.0 0.0
30/07:00am -0.8 -3.0 -1.5 95 0.2 CALM 0 0 0 0 1021.9 1021.9 0.0
30/06:30am -0.8 -3.0 -1.5 95 0.2 CALM 0 0 0 0 1021.8 1021.8 0.0
30/06:00am -0.5 -2.7 -1.2 95 0.2 CALM 0 0 0 0 1021.8 1021.8 0.0
30/05:30am -0.2 -2.3 -0.9 95 0.2 CALM 0 0 0 0 1021.9 1021.9 0.0
30/05:00am 0.1 -2.0 -0.6 95 0.3 CALM 0 0 0 0 1022.1 1022.1 0.0
30/04:30am 0.5 -1.5 -0.2 95 0.3 CALM 0 0 0 0 1022.2 1022.2 0.0
30/04:00am 0.6 -1.4 -0.1 95 0.3 CALM 0 0 0 0 1022.4 1022.4 0.0
30/03:30am 0.7 -1.3 0.0 95 0.3 CALM 0 0 0 0 1022.8 1022.8 0.0
30/03:00am 1.1 -0.8 0.4 95 0.3 CALM 0 0 0 0 1023.1 1023.1 0.0
30/02:30am 1.1 -0.8 0.4 95 0.3 CALM 0 0 0 0 1023.5 1023.5 0.0
30/02:00am 1.3 -0.6 0.6 95 0.3 CALM 0 0 0 0 1023.7 1023.7 0.0
30/01:30am 1.5 -0.4 0.8 95 0.3 CALM 0 0 0 0 1024.1 1024.1 0.0
30/01:00am 2.0 0.2 1.3 95 0.3 CALM 0 0 0 0 1024.3 1024.3 0.0
30/12:30am 2.1 0.3 1.4 95 0.3 CALM 0 0 0 0 1024.7 1024.7 0.0
30/12:00am 2.5 0.8 1.6 94 0.3 CALM 0 0 0 0 1024.9 1024.9 0.0
 
Date/Time
EST
Temp
°C
App
Temp
°C
Dew
Point
°C
Rel
Hum
%
Delta-T
°C
Wind Press
QNH
hPa
Press
MSL
hPa
Rain since
9am
mm
Dir  Spd
km/h
Gust
km/h
Spd
kts
Gust
kts
29/11:30pm 2.6 0.9 1.7 94 0.3 CALM 0 0 0 0 1025.1 1025.1 0.0
29/11:00pm 3.1 1.5 2.2 94 0.4 CALM 0 0 0 0 1025.5 1025.5 0.0
29/10:30pm 3.5 1.9 2.6 94 0.4 CALM 0 0 0 0 1025.7 1025.7 0.0
29/10:00pm 3.8 2.3 2.8 93 0.4 CALM 0 0 0 0 1025.8 1025.8 0.0
29/09:30pm 4.4 3.0 3.4 93 0.4 CALM 0 0 0 0 1025.9 1025.9 0.0
29/09:00pm 4.8 3.4 3.8 93 0.4 CALM 0 0 0 0 1026.2 1026.2 0.0
29/08:30pm 5.3 4.0 4.0 91 0.5 CALM 0 0 0 0 1026.3 1026.3 0.0
29/08:00pm 5.6 4.3 3.9 89 0.7 CALM 0 0 0 0 1026.4 1026.4 0.0
29/07:30pm 6.3 5.1 4.6 89 0.7 CALM 0 0 0 0 1026.4 1026.4 0.0
29/07:00pm 6.7 5.5 4.7 87 0.9 CALM 0 0 0 0 1026.3 1026.3 0.0
29/06:30pm 7.8 6.8 5.6 86 1.0 CALM 0 0 0 0 1026.3 1026.3 0.0
29/06:00pm 8.3 7.4 5.9 85 1.1 CALM 0 0 0 0 1026.1 1026.1 0.0
29/05:30pm 9.5 8.6 6.2 80 1.5 CALM 0 0 0 0 1025.9 1025.9 0.0
29/05:00pm 11.9 11.0 6.0 67 2.7 CALM 0 0 0 0 1025.7 1025.7 0.0
29/04:30pm 13.7 12.5 4.6 54 4.2 CALM 0 0 0 0 1025.6 1025.6 0.0
29/04:00pm 18.0 16.7 3.9 39 6.6 CALM 0 0 0 0 1025.7 1025.7 0.0
29/03:30pm 18.0 16.4 2.7 36 7.0 CALM 0 4 0 2 1025.7 1025.7 0.0
29/03:00pm 17.6 15.1 1.6 34 7.1 ESE 4 7 2 4 1025.5 1025.5 0.0
29/02:30pm 18.0 15.6 1.9 34 7.3 WSW 4 6 2 3 1025.5 1025.5 0.0
29/02:00pm 17.9 15.4 1.4 33 7.3 SW 4 6 2 3 1025.5 1025.5 0.0
29/01:30pm 17.7 15.2 1.7 34 7.2 SW 4 9 2 5 1025.7 1025.7 0.0
29/01:00pm 17.6 14.7 1.6 34 7.1 NW 6 9 3 5 1026.0 1026.0 0.0
29/12:30pm 17.0 14.2 1.8 36 6.8 SSW 6 9 3 5 1026.5 1026.5 0.0
29/12:00pm 16.5 13.6 1.4 36 6.6 SW 6 7 3 4 1027.0 1027.0 0.0
29/11:30am 16.2 13.1 1.1 36 6.6 S 7 13 4 7 1027.4 1027.4 0.0
29/11:00am 15.5 12.5 0.9 37 6.3 W 6 7 3 4 1027.8 1027.8 0.0
29/10:30am 15.6 14.3 4.0 46 5.4 CALM 0 7 0 4 1028.1 1028.1 0.0
29/10:00am 13.5 12.5 5.7 59 3.6 CALM 0 0 0 0 1028.5 1028.5 0.0
29/09:30am 10.0 9.0 5.8 75 1.9 CALM 0 0 0 0 1028.6 1028.6 0.0
29/09:00am 7.8 7.2 7.2 96 0.3 CALM 0 0 0 0 1028.5 1028.5 0.2
29/08:30am 4.3 3.0 3.9 97 0.2 CALM 0 0 0 0 1028.4 1028.4 0.2
29/08:00am 1.4 -0.5 0.8 96 0.2 CALM 0 0 0 0 1028.3 1028.3 0.0
29/07:30am 0.2 -1.8 -0.4 96 0.2 CALM 0 0 0 0 1028.3 1028.3 0.0
29/07:00am 0.2 -1.8 -0.4 96 0.2 CALM 0 0 0 0 1028.0 1028.0 0.0
29/06:30am 0.2 -1.9 -0.5 95 0.3 CALM 0 0 0 0 1027.9 1027.9 0.0
29/06:00am 0.5 -1.5 -0.2 95 0.2 CALM 0 0 0 0 1027.6 1027.6 0.0
29/05:30am 0.7 -1.3 0.0 95 0.3 CALM 0 0 0 0 1027.3 1027.3 0.0
29/05:00am 0.9 -1.1 0.2 95 0.3 CALM 0 0 0 0 1027.0 1027.0 0.0
29/04:30am 1.2 -0.7 0.5 95 0.3 CALM 0 0 0 0 1027.0 1027.0 0.0
29/04:00am 1.6 -0.2 0.9 95 0.3 CALM 0 0 0 0 1026.8 1026.8 0.0
29/03:30am 1.6 -0.2 0.9 95 0.3 CALM 0 0 0 0 1026.7 1026.7 0.0
29/03:00am 2.0 0.2 1.3 95 0.3 CALM 0 0 0 0 1026.8 1026.8 0.0
29/02:30am 2.1 0.3 1.4 95 0.3 CALM 0 0 0 0 1026.7 1026.7 0.0
29/02:00am 2.6 0.9 1.9 95 0.3 CALM 0 0 0 0 1026.8 1026.8 0.0
29/01:30am 2.6 0.9 1.9 95 0.3 CALM 0 0 0 0 1026.9 1026.9 0.0
29/01:00am 2.9 1.3 2.2 95 0.3 CALM 0 0 0 0 1027.1 1027.1 0.0
29/12:30am 3.2 1.6 2.5 95 0.3 CALM 0 0 0 0 1027.1 1027.1 0.0
29/12:00am 3.0 1.3 2.1 94 0.4 CALM 0 0 0 0 1027.4 1027.4 0.0
 
Date/Time
EST
Temp
°C
App
Temp
°C
Dew
Point
°C
Rel
Hum
%
Delta-T
°C
Wind Press
QNH
hPa
Press
MSL
hPa
Rain since
9am
mm
Dir  Spd
km/h
Gust
km/h
Spd
kts
Gust
kts
28/11:30pm 3.4 1.8 2.5 94 0.4 CALM 0 0 0 0 1027.4 1027.4 0.0
28/11:00pm 3.4 1.8 2.5 94 0.4 CALM 0 0 0 0 1027.4 1027.4 0.0
28/10:30pm 3.8 2.3 2.8 93 0.4 CALM 0 0 0 0 1027.4 1027.4 0.0
28/10:00pm 3.9 2.3 2.7 92 0.5 CALM 0 0 0 0 1027.4 1027.4 0.0
28/09:30pm 4.1 2.6 2.8 91 0.5 CALM 0 0 0 0 1027.1 1027.1 0.0
28/09:00pm 4.4 2.9 2.9 90 0.6 CALM 0 0 0 0 1026.9 1026.9 0.0
28/08:30pm 5.0 3.6 3.5 90 0.6 CALM 0 0 0 0 1026.8 1026.8 0.0
28/08:00pm 5.5 4.2 4.0 90 0.6 CALM 0 0 0 0 1026.5 1026.5 0.0
28/07:30pm 5.8 4.4 3.8 87 0.8 CALM 0 0 0 0 1026.2 1026.2 0.0
28/07:00pm 6.5 5.2 4.2 85 1.0 CALM 0 0 0 0 1026.0 1026.0 0.0
28/06:30pm 7.3 6.2 5.0 85 1.0 CALM 0 0 0 0 1025.6 1025.6 0.0
28/06:00pm 8.4 7.3 5.2 80 1.4 CALM 0 0 0 0 1025.4 1025.4 0.0
28/05:30pm 9.6 8.4 4.8 72 2.1 CALM 0 0 0 0 1024.9 1024.9 0.0
28/05:00pm 11.2 9.9 4.0 61 3.2 CALM 0 0 0 0 1024.4 1024.4 0.0
28/04:30pm 13.8 12.3 3.0 48 4.8 CALM 0 2 0 1 1024.2 1024.2 0.0

Other Formats:

Comma delimited format used in spreadsheet applications
http://www.bom.gov.au/fwo/IDN60801/IDN60801.95767.axf

JavaScript Object Notation format (JSON) in row-major order
http://www.bom.gov.au/fwo/IDN60801/IDN60801.95767.json